sensor_id;sensor_type;location;lat;lon;timestamp;P1;durP1;ratioP1;P2;durP2;ratioP2
8819;SDS011;4446;50.876;4.736;2022-08-20T00:00:52;10.27;;;7.70;;
8819;SDS011;4446;50.876;4.736;2022-08-20T00:03:20;8.75;;;7.35;;
8819;SDS011;4446;50.876;4.736;2022-08-20T00:05:53;9.32;;;7.35;;
8819;SDS011;4446;50.876;4.736;2022-08-20T00:08:22;8.15;;;7.22;;
8819;SDS011;4446;50.876;4.736;2022-08-20T00:10:50;9.45;;;6.78;;
8819;SDS011;4446;50.876;4.736;2022-08-20T00:13:20;8.48;;;6.60;;
8819;SDS011;4446;50.876;4.736;2022-08-20T00:15:51;7.15;;;6.45;;
8819;SDS011;4446;50.876;4.736;2022-08-20T00:18:19;8.38;;;5.72;;
8819;SDS011;4446;50.876;4.736;2022-08-20T00:20:47;9.10;;;6.38;;
8819;SDS011;4446;50.876;4.736;2022-08-20T00:23:17;9.23;;;6.28;;
8819;SDS011;4446;50.876;4.736;2022-08-20T00:25:44;7.53;;;6.47;;
8819;SDS011;4446;50.876;4.736;2022-08-20T00:28:12;9.15;;;6.10;;
8819;SDS011;4446;50.876;4.736;2022-08-20T00:30:40;11.18;;;7.03;;
8819;SDS011;4446;50.876;4.736;2022-08-20T00:33:11;7.97;;;6.85;;
8819;SDS011;4446;50.876;4.736;2022-08-20T00:35:40;9.95;;;6.70;;
8819;SDS011;4446;50.876;4.736;2022-08-20T00:38:10;9.10;;;6.85;;
8819;SDS011;4446;50.876;4.736;2022-08-20T00:40:39;12.50;;;7.60;;
8819;SDS011;4446;50.876;4.736;2022-08-20T00:43:23;9.00;;;6.72;;
8819;SDS011;4446;50.876;4.736;2022-08-20T00:45:57;8.55;;;7.63;;
8819;SDS011;4446;50.876;4.736;2022-08-20T00:48:28;9.77;;;7.18;;
8819;SDS011;4446;50.876;4.736;2022-08-20T00:50:58;9.18;;;8.13;;
8819;SDS011;4446;50.876;4.736;2022-08-20T00:53:29;8.65;;;7.32;;
8819;SDS011;4446;50.876;4.736;2022-08-20T00:55:58;10.18;;;7.60;;
8819;SDS011;4446;50.876;4.736;2022-08-20T00:58:26;8.15;;;7.28;;
8819;SDS011;4446;50.876;4.736;2022-08-20T01:00:54;9.98;;;7.53;;
8819;SDS011;4446;50.876;4.736;2022-08-20T01:03:22;9.38;;;7.18;;
8819;SDS011;4446;50.876;4.736;2022-08-20T01:05:50;8.50;;;7.25;;
8819;SDS011;4446;50.876;4.736;2022-08-20T01:08:19;8.45;;;6.65;;
8819;SDS011;4446;50.876;4.736;2022-08-20T01:10:49;10.30;;;7.45;;
8819;SDS011;4446;50.876;4.736;2022-08-20T01:13:18;8.30;;;6.43;;
8819;SDS011;4446;50.876;4.736;2022-08-20T01:15:48;9.75;;;6.90;;
8819;SDS011;4446;50.876;4.736;2022-08-20T01:18:19;11.25;;;7.03;;
8819;SDS011;4446;50.876;4.736;2022-08-20T01:20:53;9.77;;;6.82;;
8819;SDS011;4446;50.876;4.736;2022-08-20T01:23:24;9.70;;;6.85;;
8819;SDS011;4446;50.876;4.736;2022-08-20T01:26:02;10.05;;;6.88;;
8819;SDS011;4446;50.876;4.736;2022-08-20T01:28:34;8.88;;;6.80;;
8819;SDS011;4446;50.876;4.736;2022-08-20T01:31:04;9.10;;;6.38;;
8819;SDS011;4446;50.876;4.736;2022-08-20T01:33:33;7.53;;;6.43;;
8819;SDS011;4446;50.876;4.736;2022-08-20T01:36:01;8.00;;;5.80;;
8819;SDS011;4446;50.876;4.736;2022-08-20T01:38:28;8.32;;;5.80;;
8819;SDS011;4446;50.876;4.736;2022-08-20T01:41:06;7.90;;;5.93;;
8819;SDS011;4446;50.876;4.736;2022-08-20T01:43:43;11.40;;;6.30;;
8819;SDS011;4446;50.876;4.736;2022-08-20T01:46:11;8.55;;;5.70;;
8819;SDS011;4446;50.876;4.736;2022-08-20T01:48:40;12.05;;;6.57;;
8819;SDS011;4446;50.876;4.736;2022-08-20T01:51:09;9.52;;;5.60;;
8819;SDS011;4446;50.876;4.736;2022-08-20T01:53:38;10.23;;;5.57;;
8819;SDS011;4446;50.876;4.736;2022-08-20T01:56:10;9.73;;;5.38;;
8819;SDS011;4446;50.876;4.736;2022-08-20T01:58:41;8.40;;;5.43;;
8819;SDS011;4446;50.876;4.736;2022-08-20T02:01:17;8.98;;;5.57;;
8819;SDS011;4446;50.876;4.736;2022-08-20T02:03:48;9.27;;;5.47;;
8819;SDS011;4446;50.876;4.736;2022-08-20T02:06:16;11.35;;;5.78;;
8819;SDS011;4446;50.876;4.736;2022-08-20T02:08:43;10.98;;;5.93;;
8819;SDS011;4446;50.876;4.736;2022-08-20T02:11:11;15.38;;;5.68;;
8819;SDS011;4446;50.876;4.736;2022-08-20T02:13:39;7.13;;;4.80;;
8819;SDS011;4446;50.876;4.736;2022-08-20T02:16:06;11.88;;;5.55;;
8819;SDS011;4446;50.876;4.736;2022-08-20T02:18:33;8.90;;;5.90;;
8819;SDS011;4446;50.876;4.736;2022-08-20T02:21:01;10.77;;;5.75;;
8819;SDS011;4446;50.876;4.736;2022-08-20T02:23:28;11.90;;;5.35;;
8819;SDS011;4446;50.876;4.736;2022-08-20T02:25:55;11.65;;;5.30;;
8819;SDS011;4446;50.876;4.736;2022-08-20T02:28:24;12.60;;;6.43;;
8819;SDS011;4446;50.876;4.736;2022-08-20T02:30:52;9.90;;;5.32;;
8819;SDS011;4446;50.876;4.736;2022-08-20T02:33:20;10.88;;;6.15;;
8819;SDS011;4446;50.876;4.736;2022-08-20T02:35:48;10.77;;;5.25;;
8819;SDS011;4446;50.876;4.736;2022-08-20T02:38:16;10.73;;;5.68;;
8819;SDS011;4446;50.876;4.736;2022-08-20T02:40:44;9.98;;;4.93;;
8819;SDS011;4446;50.876;4.736;2022-08-20T02:43:13;10.38;;;5.47;;
8819;SDS011;4446;50.876;4.736;2022-08-20T02:45:44;8.48;;;5.55;;
8819;SDS011;4446;50.876;4.736;2022-08-20T02:48:12;11.13;;;5.55;;
8819;SDS011;4446;50.876;4.736;2022-08-20T02:50:45;9.15;;;5.47;;
8819;SDS011;4446;50.876;4.736;2022-08-20T02:53:13;11.75;;;5.32;;
8819;SDS011;4446;50.876;4.736;2022-08-20T02:55:41;9.52;;;5.30;;
8819;SDS011;4446;50.876;4.736;2022-08-20T02:58:08;10.15;;;5.30;;
8819;SDS011;4446;50.876;4.736;2022-08-20T03:00:36;11.63;;;5.35;;
8819;SDS011;4446;50.876;4.736;2022-08-20T03:03:05;8.32;;;4.82;;
8819;SDS011;4446;50.876;4.736;2022-08-20T03:05:32;12.00;;;5.63;;
8819;SDS011;4446;50.876;4.736;2022-08-20T03:07:59;12.77;;;5.93;;
8819;SDS011;4446;50.876;4.736;2022-08-20T03:10:27;12.80;;;6.18;;
8819;SDS011;4446;50.876;4.736;2022-08-20T03:12:56;9.18;;;5.38;;
8819;SDS011;4446;50.876;4.736;2022-08-20T03:15:23;12.02;;;6.03;;
8819;SDS011;4446;50.876;4.736;2022-08-20T03:17:51;8.98;;;5.47;;
8819;SDS011;4446;50.876;4.736;2022-08-20T03:20:19;12.30;;;6.40;;
8819;SDS011;4446;50.876;4.736;2022-08-20T03:22:47;11.90;;;5.93;;
8819;SDS011;4446;50.876;4.736;2022-08-20T03:25:14;13.10;;;6.10;;
8819;SDS011;4446;50.876;4.736;2022-08-20T03:27:42;15.18;;;6.78;;
8819;SDS011;4446;50.876;4.736;2022-08-20T03:30:12;11.85;;;6.25;;
8819;SDS011;4446;50.876;4.736;2022-08-20T03:32:40;9.23;;;5.90;;
8819;SDS011;4446;50.876;4.736;2022-08-20T03:35:09;13.52;;;6.88;;
8819;SDS011;4446;50.876;4.736;2022-08-20T03:37:39;11.93;;;6.68;;
8819;SDS011;4446;50.876;4.736;2022-08-20T03:40:08;12.05;;;5.80;;
8819;SDS011;4446;50.876;4.736;2022-08-20T03:42:37;11.05;;;6.55;;
8819;SDS011;4446;50.876;4.736;2022-08-20T03:45:05;13.00;;;6.65;;
8819;SDS011;4446;50.876;4.736;2022-08-20T03:47:34;13.05;;;6.63;;
8819;SDS011;4446;50.876;4.736;2022-08-20T03:50:02;15.27;;;6.65;;
8819;SDS011;4446;50.876;4.736;2022-08-20T03:52:31;11.13;;;6.57;;
8819;SDS011;4446;50.876;4.736;2022-08-20T03:54:59;10.57;;;7.00;;
8819;SDS011;4446;50.876;4.736;2022-08-20T03:57:26;12.20;;;6.72;;
8819;SDS011;4446;50.876;4.736;2022-08-20T03:59:54;14.77;;;6.82;;
8819;SDS011;4446;50.876;4.736;2022-08-20T04:02:21;10.57;;;6.50;;
8819;SDS011;4446;50.876;4.736;2022-08-20T04:04:49;12.85;;;6.63;;
8819;SDS011;4446;50.876;4.736;2022-08-20T04:07:18;14.57;;;7.47;;
8819;SDS011;4446;50.876;4.736;2022-08-20T04:09:49;14.00;;;7.07;;
8819;SDS011;4446;50.876;4.736;2022-08-20T04:12:18;14.43;;;6.85;;
8819;SDS011;4446;50.876;4.736;2022-08-20T04:14:45;13.20;;;6.93;;
8819;SDS011;4446;50.876;4.736;2022-08-20T04:17:12;15.38;;;7.88;;
8819;SDS011;4446;50.876;4.736;2022-08-20T04:19:39;17.33;;;7.40;;
8819;SDS011;4446;50.876;4.736;2022-08-20T04:22:07;12.98;;;6.55;;
8819;SDS011;4446;50.876;4.736;2022-08-20T04:24:37;15.02;;;7.38;;
8819;SDS011;4446;50.876;4.736;2022-08-20T04:27:05;11.82;;;6.70;;
8819;SDS011;4446;50.876;4.736;2022-08-20T04:29:34;13.30;;;7.35;;
8819;SDS011;4446;50.876;4.736;2022-08-20T04:32:02;13.02;;;7.57;;
8819;SDS011;4446;50.876;4.736;2022-08-20T04:34:32;14.27;;;7.25;;
8819;SDS011;4446;50.876;4.736;2022-08-20T04:37:00;15.93;;;7.70;;
8819;SDS011;4446;50.876;4.736;2022-08-20T04:39:28;13.93;;;7.85;;
8819;SDS011;4446;50.876;4.736;2022-08-20T04:41:55;15.82;;;8.05;;
8819;SDS011;4446;50.876;4.736;2022-08-20T04:44:21;18.88;;;8.43;;
8819;SDS011;4446;50.876;4.736;2022-08-20T04:46:49;14.75;;;7.60;;
8819;SDS011;4446;50.876;4.736;2022-08-20T04:49:16;17.10;;;7.78;;
8819;SDS011;4446;50.876;4.736;2022-08-20T04:51:50;14.57;;;7.85;;
8819;SDS011;4446;50.876;4.736;2022-08-20T04:54:18;16.40;;;8.02;;
8819;SDS011;4446;50.876;4.736;2022-08-20T04:56:45;13.82;;;8.13;;
8819;SDS011;4446;50.876;4.736;2022-08-20T04:59:13;12.20;;;7.63;;
8819;SDS011;4446;50.876;4.736;2022-08-20T05:01:40;15.85;;;8.43;;
8819;SDS011;4446;50.876;4.736;2022-08-20T05:04:08;13.70;;;8.45;;
8819;SDS011;4446;50.876;4.736;2022-08-20T05:06:35;15.05;;;7.85;;
8819;SDS011;4446;50.876;4.736;2022-08-20T05:09:04;14.85;;;8.38;;
8819;SDS011;4446;50.876;4.736;2022-08-20T05:11:31;17.58;;;7.82;;
8819;SDS011;4446;50.876;4.736;2022-08-20T05:13:59;17.48;;;8.38;;
8819;SDS011;4446;50.876;4.736;2022-08-20T05:16:26;16.60;;;8.57;;
8819;SDS011;4446;50.876;4.736;2022-08-20T05:18:53;18.55;;;9.15;;
8819;SDS011;4446;50.876;4.736;2022-08-20T05:21:22;16.98;;;8.93;;
8819;SDS011;4446;50.876;4.736;2022-08-20T05:23:49;14.75;;;8.77;;
8819;SDS011;4446;50.876;4.736;2022-08-20T05:26:16;17.70;;;8.00;;
8819;SDS011;4446;50.876;4.736;2022-08-20T05:28:44;18.13;;;7.97;;
8819;SDS011;4446;50.876;4.736;2022-08-20T05:31:13;14.13;;;8.15;;
8819;SDS011;4446;50.876;4.736;2022-08-20T05:33:40;18.40;;;8.80;;
8819;SDS011;4446;50.876;4.736;2022-08-20T05:36:07;18.65;;;9.10;;
8819;SDS011;4446;50.876;4.736;2022-08-20T05:38:35;20.67;;;9.27;;
8819;SDS011;4446;50.876;4.736;2022-08-20T05:41:03;16.83;;;9.27;;
8819;SDS011;4446;50.876;4.736;2022-08-20T05:43:31;16.80;;;8.10;;
8819;SDS011;4446;50.876;4.736;2022-08-20T05:45:58;13.88;;;8.55;;
8819;SDS011;4446;50.876;4.736;2022-08-20T05:48:26;17.65;;;7.80;;
8819;SDS011;4446;50.876;4.736;2022-08-20T05:50:54;13.57;;;7.82;;
8819;SDS011;4446;50.876;4.736;2022-08-20T05:53:22;13.57;;;8.05;;
8819;SDS011;4446;50.876;4.736;2022-08-20T05:55:51;16.08;;;7.93;;
8819;SDS011;4446;50.876;4.736;2022-08-20T05:58:20;16.00;;;7.40;;
8819;SDS011;4446;50.876;4.736;2022-08-20T06:00:48;16.83;;;8.27;;
8819;SDS011;4446;50.876;4.736;2022-08-20T06:03:16;17.58;;;7.82;;
8819;SDS011;4446;50.876;4.736;2022-08-20T06:06:00;14.68;;;7.68;;
8819;SDS011;4446;50.876;4.736;2022-08-20T06:08:28;14.48;;;7.63;;
8819;SDS011;4446;50.876;4.736;2022-08-20T06:10:57;13.15;;;7.25;;
8819;SDS011;4446;50.876;4.736;2022-08-20T06:13:24;13.10;;;6.85;;
8819;SDS011;4446;50.876;4.736;2022-08-20T06:15:53;14.48;;;7.70;;
8819;SDS011;4446;50.876;4.736;2022-08-20T06:18:20;16.23;;;7.15;;
8819;SDS011;4446;50.876;4.736;2022-08-20T06:20:47;13.70;;;7.57;;
8819;SDS011;4446;50.876;4.736;2022-08-20T06:23:15;15.68;;;7.10;;
8819;SDS011;4446;50.876;4.736;2022-08-20T06:25:42;13.75;;;7.72;;
8819;SDS011;4446;50.876;4.736;2022-08-20T06:28:11;16.40;;;7.57;;
8819;SDS011;4446;50.876;4.736;2022-08-20T06:30:39;14.38;;;7.20;;
8819;SDS011;4446;50.876;4.736;2022-08-20T06:33:06;12.77;;;6.60;;
8819;SDS011;4446;50.876;4.736;2022-08-20T06:35:33;12.10;;;6.40;;
8819;SDS011;4446;50.876;4.736;2022-08-20T06:38:02;18.38;;;7.82;;
8819;SDS011;4446;50.876;4.736;2022-08-20T06:40:30;15.75;;;7.85;;
8819;SDS011;4446;50.876;4.736;2022-08-20T06:42:58;14.90;;;7.35;;
8819;SDS011;4446;50.876;4.736;2022-08-20T06:45:28;16.75;;;7.53;;
8819;SDS011;4446;50.876;4.736;2022-08-20T06:47:57;19.08;;;8.43;;
8819;SDS011;4446;50.876;4.736;2022-08-20T06:50:28;15.88;;;7.63;;
8819;SDS011;4446;50.876;4.736;2022-08-20T06:52:57;12.20;;;7.13;;
8819;SDS011;4446;50.876;4.736;2022-08-20T06:55:24;15.35;;;7.03;;
8819;SDS011;4446;50.876;4.736;2022-08-20T06:57:55;12.00;;;6.57;;
8819;SDS011;4446;50.876;4.736;2022-08-20T07:00:23;13.45;;;7.00;;
8819;SDS011;4446;50.876;4.736;2022-08-20T07:02:53;17.30;;;7.80;;
8819;SDS011;4446;50.876;4.736;2022-08-20T07:05:19;14.05;;;7.50;;
8819;SDS011;4446;50.876;4.736;2022-08-20T07:07:47;17.52;;;7.95;;
8819;SDS011;4446;50.876;4.736;2022-08-20T07:10:16;16.92;;;8.18;;
8819;SDS011;4446;50.876;4.736;2022-08-20T07:12:44;18.00;;;8.70;;
8819;SDS011;4446;50.876;4.736;2022-08-20T07:15:11;18.58;;;7.82;;
8819;SDS011;4446;50.876;4.736;2022-08-20T07:17:40;17.02;;;8.02;;
8819;SDS011;4446;50.876;4.736;2022-08-20T07:20:10;17.17;;;8.48;;
8819;SDS011;4446;50.876;4.736;2022-08-20T07:22:39;18.65;;;9.18;;
8819;SDS011;4446;50.876;4.736;2022-08-20T07:25:07;15.77;;;8.50;;
8819;SDS011;4446;50.876;4.736;2022-08-20T07:27:36;14.73;;;7.70;;
8819;SDS011;4446;50.876;4.736;2022-08-20T07:30:03;17.40;;;8.15;;
8819;SDS011;4446;50.876;4.736;2022-08-20T07:32:49;17.80;;;7.90;;
8819;SDS011;4446;50.876;4.736;2022-08-20T07:35:18;17.02;;;7.82;;
8819;SDS011;4446;50.876;4.736;2022-08-20T07:37:46;15.00;;;7.72;;
8819;SDS011;4446;50.876;4.736;2022-08-20T07:40:14;12.38;;;7.50;;
8819;SDS011;4446;50.876;4.736;2022-08-20T07:42:43;13.35;;;7.90;;
8819;SDS011;4446;50.876;4.736;2022-08-20T07:45:12;18.80;;;8.25;;
8819;SDS011;4446;50.876;4.736;2022-08-20T07:47:42;11.77;;;7.35;;
8819;SDS011;4446;50.876;4.736;2022-08-20T07:50:11;18.38;;;8.77;;
8819;SDS011;4446;50.876;4.736;2022-08-20T07:52:42;21.52;;;8.65;;
8819;SDS011;4446;50.876;4.736;2022-08-20T07:55:10;10.88;;;7.65;;
8819;SDS011;4446;50.876;4.736;2022-08-20T07:57:40;15.77;;;8.25;;
8819;SDS011;4446;50.876;4.736;2022-08-20T08:00:08;18.52;;;8.98;;
8819;SDS011;4446;50.876;4.736;2022-08-20T08:02:36;17.98;;;9.55;;
8819;SDS011;4446;50.876;4.736;2022-08-20T08:05:04;19.88;;;8.88;;
8819;SDS011;4446;50.876;4.736;2022-08-20T08:07:32;15.07;;;8.63;;
8819;SDS011;4446;50.876;4.736;2022-08-20T08:10:03;17.52;;;8.73;;
8819;SDS011;4446;50.876;4.736;2022-08-20T08:12:34;14.25;;;8.02;;
8819;SDS011;4446;50.876;4.736;2022-08-20T08:15:03;18.80;;;8.75;;
8819;SDS011;4446;50.876;4.736;2022-08-20T08:17:31;17.33;;;8.65;;
8819;SDS011;4446;50.876;4.736;2022-08-20T08:19:59;15.60;;;8.73;;
8819;SDS011;4446;50.876;4.736;2022-08-20T08:22:26;18.73;;;10.02;;
8819;SDS011;4446;50.876;4.736;2022-08-20T08:24:56;15.75;;;9.77;;
8819;SDS011;4446;50.876;4.736;2022-08-20T08:27:27;15.18;;;9.70;;
8819;SDS011;4446;50.876;4.736;2022-08-20T08:29:56;17.92;;;10.75;;
8819;SDS011;4446;50.876;4.736;2022-08-20T08:32:24;14.48;;;10.38;;
8819;SDS011;4446;50.876;4.736;2022-08-20T08:34:51;17.95;;;11.45;;
8819;SDS011;4446;50.876;4.736;2022-08-20T08:37:18;15.65;;;10.45;;
8819;SDS011;4446;50.876;4.736;2022-08-20T08:39:45;14.88;;;10.27;;
8819;SDS011;4446;50.876;4.736;2022-08-20T08:42:15;15.20;;;10.35;;
8819;SDS011;4446;50.876;4.736;2022-08-20T08:44:51;16.45;;;10.68;;
8819;SDS011;4446;50.876;4.736;2022-08-20T08:47:21;18.30;;;11.25;;
8819;SDS011;4446;50.876;4.736;2022-08-20T08:49:52;15.52;;;12.40;;
8819;SDS011;4446;50.876;4.736;2022-08-20T08:52:21;18.02;;;11.98;;
8819;SDS011;4446;50.876;4.736;2022-08-20T08:54:52;15.48;;;12.15;;
8819;SDS011;4446;50.876;4.736;2022-08-20T08:57:22;14.48;;;12.32;;
8819;SDS011;4446;50.876;4.736;2022-08-20T08:59:52;14.00;;;10.40;;
8819;SDS011;4446;50.876;4.736;2022-08-20T09:02:23;17.80;;;12.93;;
8819;SDS011;4446;50.876;4.736;2022-08-20T09:04:51;13.90;;;8.52;;
8819;SDS011;4446;50.876;4.736;2022-08-20T09:07:21;11.23;;;8.35;;
8819;SDS011;4446;50.876;4.736;2022-08-20T09:09:50;14.85;;;9.50;;
8819;SDS011;4446;50.876;4.736;2022-08-20T09:12:18;11.73;;;6.60;;
8819;SDS011;4446;50.876;4.736;2022-08-20T09:14:48;9.07;;;5.93;;
8819;SDS011;4446;50.876;4.736;2022-08-20T09:17:18;12.60;;;6.00;;
8819;SDS011;4446;50.876;4.736;2022-08-20T09:19:46;9.10;;;5.53;;
8819;SDS011;4446;50.876;4.736;2022-08-20T09:22:16;7.57;;;5.13;;
8819;SDS011;4446;50.876;4.736;2022-08-20T09:24:44;7.50;;;5.13;;
8819;SDS011;4446;50.876;4.736;2022-08-20T09:27:12;9.40;;;5.55;;
8819;SDS011;4446;50.876;4.736;2022-08-20T09:29:39;6.53;;;4.78;;
8819;SDS011;4446;50.876;4.736;2022-08-20T09:32:07;7.95;;;3.97;;
8819;SDS011;4446;50.876;4.736;2022-08-20T09:34:37;7.28;;;4.18;;
8819;SDS011;4446;50.876;4.736;2022-08-20T09:37:06;6.22;;;4.20;;
8819;SDS011;4446;50.876;4.736;2022-08-20T09:39:33;8.70;;;3.72;;
8819;SDS011;4446;50.876;4.736;2022-08-20T09:42:10;5.85;;;3.80;;
8819;SDS011;4446;50.876;4.736;2022-08-20T09:44:39;9.10;;;4.28;;
8819;SDS011;4446;50.876;4.736;2022-08-20T09:47:06;6.45;;;3.50;;
8819;SDS011;4446;50.876;4.736;2022-08-20T09:49:34;7.97;;;3.58;;
8819;SDS011;4446;50.876;4.736;2022-08-20T09:52:03;8.65;;;3.33;;
8819;SDS011;4446;50.876;4.736;2022-08-20T09:54:33;6.63;;;3.40;;
8819;SDS011;4446;50.876;4.736;2022-08-20T09:57:02;6.05;;;3.17;;
8819;SDS011;4446;50.876;4.736;2022-08-20T09:59:32;5.40;;;2.70;;
8819;SDS011;4446;50.876;4.736;2022-08-20T10:02:00;6.43;;;3.03;;
8819;SDS011;4446;50.876;4.736;2022-08-20T10:04:27;5.65;;;2.58;;
8819;SDS011;4446;50.876;4.736;2022-08-20T10:06:55;5.22;;;2.67;;
8819;SDS011;4446;50.876;4.736;2022-08-20T10:09:24;6.03;;;2.35;;
8819;SDS011;4446;50.876;4.736;2022-08-20T10:11:51;7.43;;;2.60;;
8819;SDS011;4446;50.876;4.736;2022-08-20T10:14:18;5.47;;;2.80;;
8819;SDS011;4446;50.876;4.736;2022-08-20T10:16:45;6.53;;;2.30;;
8819;SDS011;4446;50.876;4.736;2022-08-20T10:19:19;8.70;;;2.70;;
8819;SDS011;4446;50.876;4.736;2022-08-20T10:21:48;4.22;;;2.50;;
8819;SDS011;4446;50.876;4.736;2022-08-20T10:24:16;5.47;;;2.22;;
8819;SDS011;4446;50.876;4.736;2022-08-20T10:26:45;5.38;;;2.00;;
8819;SDS011;4446;50.876;4.736;2022-08-20T10:29:13;4.80;;;2.30;;
8819;SDS011;4446;50.876;4.736;2022-08-20T10:31:40;5.00;;;2.60;;
8819;SDS011;4446;50.876;4.736;2022-08-20T10:34:07;8.43;;;3.25;;
8819;SDS011;4446;50.876;4.736;2022-08-20T10:36:34;4.85;;;2.67;;
8819;SDS011;4446;50.876;4.736;2022-08-20T10:39:02;4.80;;;2.72;;
8819;SDS011;4446;50.876;4.736;2022-08-20T10:41:29;5.90;;;2.90;;
8819;SDS011;4446;50.876;4.736;2022-08-20T10:43:57;4.88;;;2.72;;
8819;SDS011;4446;50.876;4.736;2022-08-20T10:46:24;7.13;;;2.55;;
8819;SDS011;4446;50.876;4.736;2022-08-20T10:48:51;5.38;;;2.47;;
8819;SDS011;4446;50.876;4.736;2022-08-20T10:51:18;6.10;;;2.72;;
8819;SDS011;4446;50.876;4.736;2022-08-20T10:53:45;5.85;;;2.67;;
8819;SDS011;4446;50.876;4.736;2022-08-20T10:56:13;6.72;;;2.65;;
8819;SDS011;4446;50.876;4.736;2022-08-20T10:58:39;4.82;;;2.40;;
8819;SDS011;4446;50.876;4.736;2022-08-20T11:01:08;5.90;;;2.75;;
8819;SDS011;4446;50.876;4.736;2022-08-20T11:03:35;7.95;;;2.60;;
8819;SDS011;4446;50.876;4.736;2022-08-20T11:06:02;5.55;;;2.63;;
8819;SDS011;4446;50.876;4.736;2022-08-20T11:08:30;6.18;;;2.90;;
8819;SDS011;4446;50.876;4.736;2022-08-20T11:10:57;6.38;;;2.47;;
8819;SDS011;4446;50.876;4.736;2022-08-20T11:13:24;4.68;;;2.20;;
8819;SDS011;4446;50.876;4.736;2022-08-20T11:15:51;7.13;;;2.40;;
8819;SDS011;4446;50.876;4.736;2022-08-20T11:18:20;4.65;;;2.35;;
8819;SDS011;4446;50.876;4.736;2022-08-20T11:20:48;8.02;;;2.33;;
8819;SDS011;4446;50.876;4.736;2022-08-20T11:23:19;6.50;;;2.42;;
8819;SDS011;4446;50.876;4.736;2022-08-20T11:25:46;4.70;;;2.38;;
8819;SDS011;4446;50.876;4.736;2022-08-20T11:28:13;5.88;;;2.58;;
8819;SDS011;4446;50.876;4.736;2022-08-20T11:30:41;4.10;;;2.28;;
8819;SDS011;4446;50.876;4.736;2022-08-20T11:33:08;5.68;;;2.53;;
8819;SDS011;4446;50.876;4.736;2022-08-20T11:35:37;3.92;;;2.20;;
8819;SDS011;4446;50.876;4.736;2022-08-20T11:38:04;5.80;;;2.53;;
8819;SDS011;4446;50.876;4.736;2022-08-20T11:40:31;5.65;;;2.30;;
8819;SDS011;4446;50.876;4.736;2022-08-20T11:42:58;6.20;;;2.40;;
8819;SDS011;4446;50.876;4.736;2022-08-20T11:45:25;7.10;;;2.60;;
8819;SDS011;4446;50.876;4.736;2022-08-20T11:47:52;5.57;;;2.22;;
8819;SDS011;4446;50.876;4.736;2022-08-20T11:50:19;5.40;;;2.75;;
8819;SDS011;4446;50.876;4.736;2022-08-20T11:52:48;5.97;;;2.33;;
8819;SDS011;4446;50.876;4.736;2022-08-20T11:55:15;6.15;;;2.67;;
8819;SDS011;4446;50.876;4.736;2022-08-20T11:57:44;6.22;;;2.80;;
8819;SDS011;4446;50.876;4.736;2022-08-20T12:00:14;5.38;;;2.42;;
8819;SDS011;4446;50.876;4.736;2022-08-20T12:02:45;5.25;;;2.50;;
8819;SDS011;4446;50.876;4.736;2022-08-20T12:05:13;5.97;;;2.47;;
8819;SDS011;4446;50.876;4.736;2022-08-20T12:07:40;5.60;;;2.72;;
8819;SDS011;4446;50.876;4.736;2022-08-20T12:10:09;7.13;;;2.80;;
8819;SDS011;4446;50.876;4.736;2022-08-20T12:12:36;6.13;;;2.90;;
8819;SDS011;4446;50.876;4.736;2022-08-20T12:15:04;6.60;;;2.80;;
8819;SDS011;4446;50.876;4.736;2022-08-20T12:17:33;5.35;;;2.75;;
8819;SDS011;4446;50.876;4.736;2022-08-20T12:20:03;6.85;;;3.30;;
8819;SDS011;4446;50.876;4.736;2022-08-20T12:22:33;8.38;;;2.78;;
8819;SDS011;4446;50.876;4.736;2022-08-20T12:25:00;6.53;;;2.95;;
8819;SDS011;4446;50.876;4.736;2022-08-20T12:27:29;6.30;;;2.92;;
8819;SDS011;4446;50.876;4.736;2022-08-20T12:29:58;6.13;;;2.50;;
8819;SDS011;4446;50.876;4.736;2022-08-20T12:32:27;5.78;;;2.45;;
8819;SDS011;4446;50.876;4.736;2022-08-20T12:34:55;4.80;;;2.80;;
8819;SDS011;4446;50.876;4.736;2022-08-20T12:37:24;5.72;;;2.88;;
8819;SDS011;4446;50.876;4.736;2022-08-20T12:39:54;5.53;;;2.90;;
8819;SDS011;4446;50.876;4.736;2022-08-20T12:42:23;4.95;;;2.35;;
8819;SDS011;4446;50.876;4.736;2022-08-20T12:44:52;4.18;;;2.55;;
8819;SDS011;4446;50.876;4.736;2022-08-20T12:47:19;5.45;;;2.70;;
8819;SDS011;4446;50.876;4.736;2022-08-20T12:49:49;6.05;;;2.60;;
8819;SDS011;4446;50.876;4.736;2022-08-20T12:52:18;6.15;;;2.90;;
8819;SDS011;4446;50.876;4.736;2022-08-20T12:54:46;5.88;;;2.78;;
8819;SDS011;4446;50.876;4.736;2022-08-20T12:57:13;5.88;;;2.58;;
8819;SDS011;4446;50.876;4.736;2022-08-20T12:59:41;5.47;;;2.72;;
8819;SDS011;4446;50.876;4.736;2022-08-20T13:02:09;6.20;;;2.92;;
8819;SDS011;4446;50.876;4.736;2022-08-20T13:04:36;6.95;;;2.85;;
8819;SDS011;4446;50.876;4.736;2022-08-20T13:07:03;5.20;;;2.75;;
8819;SDS011;4446;50.876;4.736;2022-08-20T13:09:31;4.47;;;2.75;;
8819;SDS011;4446;50.876;4.736;2022-08-20T13:11:58;5.80;;;2.50;;
8819;SDS011;4446;50.876;4.736;2022-08-20T13:14:25;3.90;;;2.30;;
8819;SDS011;4446;50.876;4.736;2022-08-20T13:16:55;4.00;;;2.40;;
8819;SDS011;4446;50.876;4.736;2022-08-20T13:19:24;6.40;;;2.50;;
8819;SDS011;4446;50.876;4.736;2022-08-20T13:21:52;5.05;;;2.47;;
8819;SDS011;4446;50.876;4.736;2022-08-20T13:24:20;3.92;;;2.08;;
8819;SDS011;4446;50.876;4.736;2022-08-20T13:26:48;4.55;;;1.90;;
8819;SDS011;4446;50.876;4.736;2022-08-20T13:29:16;3.83;;;2.38;;
8819;SDS011;4446;50.876;4.736;2022-08-20T13:31:44;4.35;;;2.63;;
8819;SDS011;4446;50.876;4.736;2022-08-20T13:34:11;5.28;;;2.40;;
8819;SDS011;4446;50.876;4.736;2022-08-20T13:36:40;5.05;;;2.42;;
8819;SDS011;4446;50.876;4.736;2022-08-20T13:39:07;8.10;;;2.33;;
8819;SDS011;4446;50.876;4.736;2022-08-20T13:41:34;3.65;;;2.10;;
8819;SDS011;4446;50.876;4.736;2022-08-20T13:44:03;4.53;;;2.25;;
8819;SDS011;4446;50.876;4.736;2022-08-20T13:46:30;5.25;;;2.30;;
8819;SDS011;4446;50.876;4.736;2022-08-20T13:48:57;4.10;;;2.00;;
8819;SDS011;4446;50.876;4.736;2022-08-20T13:51:24;5.45;;;2.33;;
8819;SDS011;4446;50.876;4.736;2022-08-20T13:53:53;3.92;;;2.15;;
8819;SDS011;4446;50.876;4.736;2022-08-20T13:56:20;4.60;;;2.13;;
8819;SDS011;4446;50.876;4.736;2022-08-20T13:58:47;4.00;;;2.13;;
8819;SDS011;4446;50.876;4.736;2022-08-20T14:01:14;3.20;;;1.77;;
8819;SDS011;4446;50.876;4.736;2022-08-20T14:03:41;3.65;;;2.00;;
8819;SDS011;4446;50.876;4.736;2022-08-20T14:06:08;6.53;;;2.10;;
8819;SDS011;4446;50.876;4.736;2022-08-20T14:08:35;4.82;;;1.98;;
8819;SDS011;4446;50.876;4.736;2022-08-20T14:11:03;4.72;;;2.00;;
8819;SDS011;4446;50.876;4.736;2022-08-20T14:13:31;3.22;;;1.80;;
8819;SDS011;4446;50.876;4.736;2022-08-20T14:15:58;4.30;;;2.00;;
8819;SDS011;4446;50.876;4.736;2022-08-20T14:18:25;2.78;;;1.90;;
8819;SDS011;4446;50.876;4.736;2022-08-20T14:20:52;4.50;;;2.15;;
8819;SDS011;4446;50.876;4.736;2022-08-20T14:23:19;3.28;;;2.17;;
8819;SDS011;4446;50.876;4.736;2022-08-20T14:25:47;3.08;;;1.95;;
8819;SDS011;4446;50.876;4.736;2022-08-20T14:28:16;3.00;;;1.70;;
8819;SDS011;4446;50.876;4.736;2022-08-20T14:30:45;2.65;;;1.85;;
8819;SDS011;4446;50.876;4.736;2022-08-20T14:33:13;3.47;;;2.05;;
8819;SDS011;4446;50.876;4.736;2022-08-20T14:35:40;3.70;;;2.20;;
8819;SDS011;4446;50.876;4.736;2022-08-20T14:38:08;5.40;;;2.47;;
8819;SDS011;4446;50.876;4.736;2022-08-20T14:40:35;4.35;;;1.92;;
8819;SDS011;4446;50.876;4.736;2022-08-20T14:43:02;3.72;;;2.05;;
8819;SDS011;4446;50.876;4.736;2022-08-20T14:45:31;4.38;;;2.33;;
8819;SDS011;4446;50.876;4.736;2022-08-20T14:47:58;3.97;;;2.17;;
8819;SDS011;4446;50.876;4.736;2022-08-20T14:50:25;3.88;;;2.05;;
8819;SDS011;4446;50.876;4.736;2022-08-20T14:52:54;2.97;;;2.15;;
8819;SDS011;4446;50.876;4.736;2022-08-20T14:55:22;3.97;;;1.80;;
8819;SDS011;4446;50.876;4.736;2022-08-20T14:57:51;3.80;;;1.95;;
8819;SDS011;4446;50.876;4.736;2022-08-20T15:00:20;2.90;;;1.90;;
8819;SDS011;4446;50.876;4.736;2022-08-20T15:02:50;2.47;;;1.75;;
8819;SDS011;4446;50.876;4.736;2022-08-20T15:05:17;5.57;;;2.28;;
8819;SDS011;4446;50.876;4.736;2022-08-20T15:07:45;2.55;;;2.00;;
8819;SDS011;4446;50.876;4.736;2022-08-20T15:10:14;3.85;;;2.30;;
8819;SDS011;4446;50.876;4.736;2022-08-20T15:12:43;3.72;;;2.15;;
8819;SDS011;4446;50.876;4.736;2022-08-20T15:15:11;2.88;;;2.08;;